createdAt,value
2019-05-01T00:00:38.406Z,31.30
2019-05-01T00:02:42.583Z,30.10
2019-05-01T00:03:42.802Z,28.30
2019-05-01T00:05:46.966Z,30.50
2019-05-01T00:06:47.192Z,29.60
2019-05-01T00:08:51.899Z,28.60
2019-05-01T00:09:52.108Z,30.10
2019-05-01T00:11:45.209Z,28.90
2019-05-01T00:12:45.436Z,30.90
2019-05-01T00:14:50.102Z,32.20
2019-05-01T00:15:50.335Z,33.20
2019-05-01T00:17:54.514Z,31.30
2019-05-01T00:18:54.744Z,29.30
2019-05-01T00:20:59.408Z,31.50
2019-05-01T00:21:59.621Z,31.90
2019-05-01T00:24:03.807Z,33.10
2019-05-01T00:25:04.046Z,32.60
2019-05-01T00:27:08.724Z,34.20
2019-05-01T00:28:08.955Z,30.20
2019-05-01T00:30:13.607Z,32.60
2019-05-01T00:31:13.846Z,32.50
2019-05-01T00:33:18.023Z,32.60
2019-05-01T00:34:18.258Z,34.30
2019-05-01T00:36:22.912Z,32.30
2019-05-01T00:37:23.147Z,33.00
2019-05-01T00:39:27.323Z,29.50
2019-05-01T00:40:27.574Z,33.70
2019-05-01T00:42:31.743Z,32.00
2019-05-01T00:43:31.982Z,34.50
2019-05-01T00:45:36.133Z,35.90
2019-05-01T00:46:36.370Z,34.60
2019-05-01T00:48:40.549Z,36.30
2019-05-01T00:49:40.792Z,34.20
2019-05-01T00:51:33.870Z,34.10
2019-05-01T00:52:34.111Z,34.00
2019-05-01T00:54:38.283Z,33.30
2019-05-01T00:55:38.520Z,32.40
2019-05-01T00:57:43.191Z,33.60
2019-05-01T00:58:43.431Z,31.60
2019-05-01T01:00:48.084Z,33.70
2019-05-01T01:01:48.318Z,34.10
2019-05-01T01:03:52.497Z,34.50
2019-05-01T01:04:52.736Z,32.30
2019-05-01T01:06:56.891Z,33.10
2019-05-01T01:07:57.126Z,33.30
2019-05-01T01:10:01.300Z,35.70
2019-05-01T01:11:01.540Z,36.10
2019-05-01T01:13:05.725Z,35.50
2019-05-01T01:14:05.964Z,35.00
2019-05-01T01:16:10.107Z,36.20
2019-05-01T01:17:10.335Z,38.00
2019-05-01T01:19:15.021Z,39.40
2019-05-01T01:20:15.255Z,40.80
2019-05-01T01:22:08.336Z,37.90
2019-05-01T01:23:08.573Z,41.40
2019-05-01T01:25:12.759Z,43.00
2019-05-01T01:26:13.001Z,44.10
2019-05-01T01:28:17.175Z,43.30
2019-05-01T01:29:17.436Z,41.90
2019-05-01T01:31:22.045Z,43.20
2019-05-01T01:32:22.286Z,42.20
2019-05-01T01:34:26.472Z,42.90
2019-05-01T01:35:26.697Z,42.70
2019-05-01T01:37:31.339Z,40.30
2019-05-01T01:38:31.581Z,40.80
2019-05-01T01:40:36.277Z,40.10
2019-05-01T01:41:36.476Z,42.50
2019-05-01T01:43:41.187Z,41.20
2019-05-01T01:44:41.396Z,42.80
2019-05-01T01:46:46.054Z,40.70
2019-05-01T01:47:46.275Z,41.30
2019-05-01T01:49:50.941Z,42.80
2019-05-01T01:50:51.195Z,43.70
2019-05-01T01:52:55.832Z,43.80
2019-05-01T01:53:56.086Z,46.30
2019-05-01T01:56:00.744Z,46.40
2019-05-01T01:57:00.981Z,47.30
2019-05-01T01:59:05.162Z,47.80
2019-05-01T02:00:05.387Z,50.10
2019-05-01T02:01:58.974Z,51.40
2019-05-01T02:02:59.196Z,49.70
2019-05-01T02:05:03.862Z,50.80
2019-05-01T02:06:04.103Z,47.00
2019-05-01T02:08:09.100Z,39.70
2019-05-01T02:09:08.990Z,40.80
2019-05-01T02:11:13.203Z,46.30
2019-05-01T02:12:13.392Z,39.80
2019-05-01T02:14:18.069Z,33.80
2019-05-01T02:15:18.312Z,33.20
2019-05-01T02:17:22.962Z,38.00
2019-05-01T02:18:23.184Z,41.60
2019-05-01T02:20:27.857Z,35.60
2019-05-01T02:21:28.079Z,34.00
2019-05-01T02:23:32.734Z,35.90
2019-05-01T02:24:32.981Z,37.40
2019-05-01T02:26:37.136Z,43.40
2019-05-01T02:27:37.362Z,50.60
2019-05-01T02:29:41.553Z,53.20
2019-05-01T02:30:41.775Z,50.90
2019-05-01T02:32:46.418Z,53.80
2019-05-01T02:33:46.648Z,60.50
2019-05-01T02:35:50.823Z,60.90
2019-05-01T02:36:51.058Z,61.00
2019-05-01T02:38:55.741Z,55.50
2019-05-01T02:39:55.972Z,53.70
2019-05-01T02:41:49.567Z,58.50
2019-05-01T02:42:49.759Z,60.30
2019-05-01T02:44:54.455Z,65.20
2019-05-01T02:45:54.670Z,62.40
2019-05-01T02:47:59.323Z,62.40
2019-05-01T02:48:59.561Z,63.80
2019-05-01T02:51:03.753Z,54.90
2019-05-01T02:52:03.981Z,59.90
2019-05-01T02:54:08.629Z,53.80
2019-05-01T02:55:08.860Z,54.90
2019-05-01T02:57:13.530Z,58.20
2019-05-01T02:58:13.766Z,61.00
2019-05-01T03:00:18.045Z,58.60
2019-05-01T03:01:18.194Z,59.00
2019-05-01T03:03:22.833Z,58.50
2019-05-01T03:04:23.086Z,58.40
2019-05-01T03:06:27.730Z,57.10
2019-05-01T03:07:27.981Z,56.20
2019-05-01T03:09:32.637Z,58.30
2019-05-01T03:10:32.874Z,54.30
2019-05-01T03:12:37.521Z,47.30
2019-05-01T03:13:37.748Z,49.60
2019-05-01T03:15:41.922Z,56.10
2019-05-01T03:16:42.175Z,55.80
2019-05-01T03:18:46.825Z,39.90
2019-05-01T03:19:47.043Z,34.80
2019-05-01T03:21:40.644Z,35.20
2019-05-01T03:22:40.881Z,34.30
2019-05-01T03:24:45.044Z,42.10
2019-05-01T03:25:45.285Z,46.00
2019-05-01T03:27:49.921Z,56.20
2019-05-01T03:28:50.155Z,57.60
2019-05-01T03:30:54.345Z,58.60
2019-05-01T03:32:15.757Z,67.20
2019-05-01T03:33:58.707Z,66.50
2019-05-01T03:34:58.958Z,62.20
2019-05-01T03:37:03.605Z,60.80
2019-05-01T03:38:03.837Z,60.10
2019-05-01T03:40:12.098Z,67.30
2019-05-01T03:41:08.744Z,66.40
2019-05-01T03:43:12.894Z,75.20
2019-05-01T03:44:13.127Z,79.80
2019-05-01T03:46:17.822Z,83.50
2019-05-01T03:47:18.024Z,84.00
2019-05-01T03:49:22.711Z,84.00
2019-05-01T03:50:22.919Z,80.70
2019-05-01T03:52:27.589Z,68.40
2019-05-01T03:53:27.840Z,76.40
2019-05-01T03:55:33.529Z,76.60
2019-05-01T03:56:33.750Z,69.10
2019-05-01T03:58:38.437Z,83.00
2019-05-01T03:59:38.627Z,91.90
2019-05-01T04:01:31.749Z,88.70
2019-05-01T04:02:34.208Z,84.10
2019-05-01T04:04:36.648Z,87.40
2019-05-01T04:05:36.841Z,84.20
2019-05-01T04:07:41.008Z,83.20
2019-05-01T04:08:41.252Z,85.00
2019-05-01T04:10:45.943Z,78.30
2019-05-01T04:11:46.184Z,76.40
2019-05-01T04:13:50.309Z,74.60
2019-05-01T04:14:50.549Z,74.70
2019-05-01T04:16:55.205Z,75.40
2019-05-01T04:17:55.444Z,79.50
2019-05-01T04:20:00.089Z,74.90
2019-05-01T04:21:00.364Z,71.90
2019-05-01T04:23:04.496Z,79.00
2019-05-01T04:24:04.747Z,73.80
2019-05-01T04:26:09.400Z,64.80
2019-05-01T04:27:09.631Z,65.90
2019-05-01T04:29:14.288Z,43.50
2019-05-01T04:30:14.498Z,37.00
2019-05-01T04:32:07.594Z,43.60
2019-05-01T04:33:07.839Z,52.30
2019-05-01T04:35:11.991Z,51.00
2019-05-01T04:36:12.222Z,44.00
2019-05-01T04:38:16.407Z,61.00
2019-05-01T04:39:16.653Z,73.20
2019-05-01T04:41:21.320Z,76.70
2019-05-01T04:42:21.556Z,73.20
2019-05-01T04:44:25.706Z,75.40
2019-05-01T04:45:25.937Z,71.10
2019-05-01T04:47:30.116Z,70.00
2019-05-01T04:48:30.353Z,69.70
2019-05-01T04:50:34.558Z,52.40
2019-05-01T04:51:34.762Z,57.90
2019-05-01T04:53:39.429Z,47.70
2019-05-01T04:54:39.640Z,43.20
2019-05-01T04:56:44.317Z,50.00
2019-05-01T04:57:44.559Z,54.90
2019-05-01T04:59:48.711Z,46.90
2019-05-01T05:00:48.937Z,45.90
2019-05-01T05:03:04.183Z,43.20
2019-05-01T05:03:53.847Z,45.10
2019-05-01T05:05:58.023Z,44.20
2019-05-01T05:06:58.241Z,44.90
2019-05-01T05:09:02.908Z,41.40
2019-05-01T05:10:03.153Z,42.70
2019-05-01T05:11:56.745Z,45.50
2019-05-01T05:12:56.993Z,45.20
2019-05-01T05:15:01.137Z,43.80
2019-05-01T05:16:01.369Z,41.70
2019-05-01T05:18:06.059Z,42.40
2019-05-01T05:19:06.277Z,44.60
2019-05-01T05:21:10.930Z,45.40
2019-05-01T05:22:11.174Z,43.10
2019-05-01T05:24:15.346Z,41.50
2019-05-01T05:25:15.580Z,43.30
2019-05-01T05:27:19.759Z,44.40
2019-05-01T05:28:19.998Z,41.50
2019-05-01T05:30:24.649Z,39.80
2019-05-01T05:31:24.886Z,39.40
2019-05-01T05:33:29.557Z,40.80
2019-05-01T05:34:29.797Z,39.50
2019-05-01T05:36:34.443Z,39.50
2019-05-01T05:37:34.687Z,41.30
2019-05-01T05:39:38.854Z,39.90
2019-05-01T05:40:39.087Z,41.40
2019-05-01T05:42:43.759Z,38.90
2019-05-01T05:43:43.991Z,38.80
2019-05-01T05:45:48.661Z,42.20
2019-05-01T05:46:48.895Z,39.50
2019-05-01T05:48:53.142Z,39.00
2019-05-01T05:49:53.378Z,38.70
2019-05-01T05:51:46.456Z,39.00
2019-05-01T05:52:46.689Z,43.00
2019-05-01T05:54:50.868Z,33.10
2019-05-01T05:55:51.111Z,38.80
2019-05-01T05:57:55.275Z,37.50
2019-05-01T05:58:55.512Z,37.50
2019-05-01T06:01:00.171Z,38.20
2019-05-01T06:02:00.403Z,36.70
2019-05-01T06:04:05.061Z,37.50
2019-05-01T06:05:05.298Z,35.60
2019-05-01T06:07:09.447Z,36.20
2019-05-01T06:08:09.685Z,36.60
2019-05-01T06:10:18.418Z,35.30
2019-05-01T06:11:14.588Z,36.20
2019-05-01T06:13:21.934Z,37.00
2019-05-01T06:14:19.008Z,36.00
2019-05-01T06:16:23.160Z,35.90
2019-05-01T06:17:23.877Z,32.70
2019-05-01T06:19:27.579Z,34.60
2019-05-01T06:20:27.815Z,36.20
2019-05-01T06:22:31.976Z,35.70
2019-05-01T06:23:34.273Z,34.40
2019-05-01T06:25:36.408Z,36.90
2019-05-01T06:26:37.725Z,34.70
2019-05-01T06:28:40.822Z,35.80
2019-05-01T06:29:41.050Z,33.20
2019-05-01T06:31:34.146Z,38.30
2019-05-01T06:32:34.777Z,35.10
2019-05-01T06:34:39.020Z,33.10
2019-05-01T06:35:39.434Z,32.50
2019-05-01T06:37:43.911Z,31.80
2019-05-01T06:38:44.141Z,33.20
2019-05-01T06:40:53.009Z,33.40
2019-05-01T06:41:49.047Z,34.70
2019-05-01T06:43:57.010Z,33.40
2019-05-01T06:44:53.949Z,32.80
2019-05-01T06:47:03.296Z,34.70
2019-05-01T06:47:59.350Z,32.10
2019-05-01T06:50:05.925Z,31.60
2019-05-01T06:51:03.750Z,33.40
2019-05-01T06:53:07.967Z,33.50
2019-05-01T06:54:11.321Z,32.70
2019-05-01T06:56:12.310Z,34.40
2019-05-01T06:57:12.547Z,33.10
2019-05-01T06:59:16.725Z,33.10
2019-05-01T07:00:16.962Z,35.80
2019-05-01T07:02:10.550Z,35.60
2019-05-01T07:03:11.685Z,32.30
2019-05-01T07:05:16.595Z,31.80
2019-05-01T07:06:16.739Z,33.50
2019-05-01T07:08:24.602Z,35.00
2019-05-01T07:09:27.791Z,33.60
2019-05-01T07:11:15.446Z,33.10
2019-05-01T07:12:14.948Z,34.60
2019-05-01T07:14:19.618Z,33.50
2019-05-01T07:15:21.967Z,31.90
2019-05-01T07:17:24.036Z,32.10
2019-05-01T07:18:28.876Z,33.20
2019-05-01T07:20:28.435Z,32.70
2019-05-01T07:21:32.559Z,34.00
2019-05-01T07:23:32.828Z,31.80
2019-05-01T07:24:33.074Z,33.10
2019-05-01T07:26:37.747Z,32.60
2019-05-01T07:27:37.987Z,32.30
2019-05-01T07:29:44.993Z,32.40
2019-05-01T07:30:42.399Z,30.70
2019-05-01T07:32:46.556Z,30.70
2019-05-01T07:33:50.780Z,32.70
2019-05-01T07:35:53.721Z,32.20
2019-05-01T07:36:51.734Z,30.30
2019-05-01T07:38:55.375Z,31.10
2019-05-01T07:39:55.617Z,32.70
2019-05-01T07:41:48.723Z,31.30
2019-05-01T07:42:49.425Z,30.70
2019-05-01T07:44:53.149Z,28.50
2019-05-01T07:45:53.394Z,27.50
2019-05-01T07:48:01.105Z,29.20
2019-05-01T07:48:57.791Z,28.40
2019-05-01T07:51:06.605Z,33.50
2019-05-01T07:52:02.232Z,28.30
2019-05-01T07:54:08.869Z,29.30
2019-05-01T07:55:06.601Z,27.30
2019-05-01T07:57:10.781Z,29.50
2019-05-01T07:58:16.034Z,38.70
2019-05-01T08:00:15.203Z,28.10
2019-05-01T08:01:18.269Z,28.90
2019-05-01T08:03:19.602Z,29.30
2019-05-01T08:04:35.227Z,31.40
2019-05-01T08:06:24.023Z,28.20
2019-05-01T08:07:27.838Z,29.20
2019-05-01T08:09:28.416Z,42.30
2019-05-01T08:10:31.460Z,39.70
2019-05-01T08:12:32.856Z,42.80
2019-05-01T08:13:35.008Z,36.20
2019-05-01T08:15:37.315Z,29.50
2019-05-01T08:16:37.869Z,29.10
2019-05-01T08:18:41.711Z,32.80
2019-05-01T08:19:41.952Z,36.30
2019-05-01T08:21:35.061Z,29.30
2019-05-01T08:22:37.334Z,28.90
2019-05-01T08:24:39.464Z,30.30
2019-05-01T08:25:39.704Z,27.90
2019-05-01T08:27:43.894Z,28.60
2019-05-01T08:28:44.139Z,27.60
2019-05-01T08:30:52.676Z,28.40
2019-05-01T08:31:48.566Z,24.70
2019-05-01T08:33:52.770Z,25.70
2019-05-01T08:34:55.686Z,23.60
2019-05-01T08:36:57.198Z,24.30
2019-05-01T08:37:58.324Z,23.40
2019-05-01T08:40:01.616Z,22.70
2019-05-01T08:41:01.864Z,23.90
2019-05-01T08:43:06.057Z,23.30
2019-05-01T08:44:06.309Z,23.60
2019-05-01T08:46:11.871Z,23.40
2019-05-01T08:47:10.756Z,22.70
2019-05-01T08:49:14.926Z,22.70
2019-05-01T08:50:15.175Z,22.70
2019-05-01T08:52:12.674Z,22.10
2019-05-01T08:53:08.548Z,24.90
2019-05-01T08:55:12.722Z,24.40
2019-05-01T08:56:17.153Z,23.60
2019-05-01T08:58:17.186Z,21.90
2019-05-01T08:59:19.427Z,19.20
2019-05-01T09:01:21.616Z,22.20
2019-05-01T09:02:21.867Z,22.00
2019-05-01T09:04:30.422Z,20.80
2019-05-01T09:05:30.024Z,20.90
2019-05-01T09:07:30.517Z,18.50
2019-05-01T09:08:32.134Z,18.70
2019-05-01T09:10:34.914Z,18.10
2019-05-01T09:11:36.337Z,18.50
2019-05-01T09:13:39.365Z,20.10
2019-05-01T09:14:39.614Z,17.20
2019-05-01T09:16:43.811Z,18.40
2019-05-01T09:17:44.061Z,17.70
2019-05-01T09:19:48.243Z,18.20
2019-05-01T09:20:48.496Z,18.50
2019-05-01T09:22:52.693Z,33.00
2019-05-01T09:23:53.277Z,18.10
2019-05-01T09:25:57.114Z,16.50
2019-05-01T09:26:57.363Z,15.80
2019-05-01T09:29:01.558Z,15.20
2019-05-01T09:30:04.312Z,14.50
2019-05-01T09:31:54.932Z,14.50
2019-05-01T09:32:55.581Z,13.90
2019-05-01T09:34:59.359Z,13.80
2019-05-01T09:35:59.610Z,13.90
2019-05-01T09:38:03.806Z,14.00
2019-05-01T09:39:04.056Z,14.30
2019-05-01T09:41:08.235Z,13.90
2019-05-01T09:42:08.483Z,15.10
2019-05-01T09:44:12.681Z,13.60
2019-05-01T09:45:12.931Z,14.10
2019-05-01T09:47:17.135Z,15.30
2019-05-01T09:48:17.379Z,14.50
2019-05-01T09:50:21.560Z,14.40
2019-05-01T09:51:21.809Z,15.80
2019-05-01T09:53:29.637Z,14.10
2019-05-01T09:54:26.261Z,13.30
2019-05-01T09:56:30.442Z,13.30
2019-05-01T09:57:30.693Z,13.20
2019-05-01T09:59:34.893Z,13.60
2019-05-01T10:00:35.145Z,12.70
2019-05-01T10:02:42.297Z,11.50
2019-05-01T10:03:39.592Z,11.70
2019-05-01T10:05:44.223Z,11.30
2019-05-01T10:06:47.653Z,12.60
2019-05-01T10:08:48.214Z,9.40
2019-05-01T10:09:52.201Z,9.80
2019-05-01T10:11:41.963Z,10.30
2019-05-01T10:12:46.759Z,10.40
2019-05-01T10:14:46.027Z,11.80
2019-05-01T10:15:46.279Z,9.60
2019-05-01T10:17:50.476Z,11.50
2019-05-01T10:18:50.729Z,11.00
2019-05-01T10:20:54.916Z,10.00
2019-05-01T10:21:57.867Z,10.10
2019-05-01T10:24:00.389Z,10.80
2019-05-01T10:25:00.637Z,10.70
2019-05-01T10:27:04.818Z,10.70
2019-05-01T10:28:07.335Z,11.20
2019-05-01T10:30:09.277Z,9.60
2019-05-01T10:31:11.864Z,8.90
2019-05-01T10:33:13.722Z,8.90
2019-05-01T10:34:13.971Z,9.80
2019-05-01T10:36:20.396Z,10.00
2019-05-01T10:37:18.431Z,8.60
2019-05-01T10:39:22.637Z,11.30
2019-05-01T10:40:26.966Z,9.70
2019-05-01T10:42:27.074Z,10.10
2019-05-01T10:43:27.327Z,9.80
2019-05-01T10:45:31.531Z,9.60
2019-05-01T10:46:31.786Z,10.10
2019-05-01T10:48:35.970Z,8.80
2019-05-01T10:49:36.224Z,9.50
2019-05-01T10:51:29.355Z,9.30
2019-05-01T10:52:29.609Z,9.80
2019-05-01T10:54:33.814Z,9.40
2019-05-01T10:55:34.065Z,10.00
2019-05-01T10:57:40.613Z,10.60
2019-05-01T10:58:38.506Z,10.90
2019-05-01T11:00:42.710Z,10.10
2019-05-01T11:01:42.964Z,9.60
2019-05-01T11:03:47.147Z,9.60
2019-05-01T11:04:47.400Z,9.70
2019-05-01T11:06:51.602Z,10.30
2019-05-01T11:07:51.855Z,10.20
2019-05-01T11:09:56.076Z,11.20
2019-05-01T11:10:56.331Z,10.60
2019-05-01T11:13:00.512Z,9.70
2019-05-01T11:14:00.763Z,9.70
2019-05-01T11:16:04.964Z,9.90
2019-05-01T11:17:05.220Z,9.60
2019-05-01T11:19:09.448Z,9.80
2019-05-01T11:20:09.652Z,10.70
2019-05-01T11:22:02.781Z,9.60
2019-05-01T11:23:03.034Z,9.90
2019-05-01T11:25:07.216Z,10.60
2019-05-01T11:26:07.470Z,10.20
2019-05-01T11:28:11.680Z,9.40
2019-05-01T11:29:11.934Z,9.40
2019-05-01T11:31:16.135Z,9.60
2019-05-01T11:32:16.387Z,9.60
2019-05-01T11:34:20.567Z,10.70
2019-05-01T11:35:20.821Z,10.40
2019-05-01T11:37:25.030Z,9.90
2019-05-01T11:38:25.274Z,10.60
2019-05-01T11:40:29.478Z,11.20
2019-05-01T11:41:29.729Z,10.80
2019-05-01T11:43:33.912Z,15.00
2019-05-01T11:44:34.160Z,11.20
2019-05-01T11:46:38.358Z,11.50
2019-05-01T11:47:38.609Z,11.50
2019-05-01T11:49:42.782Z,13.10
2019-05-01T11:50:43.034Z,12.50
2019-05-01T11:52:47.232Z,15.10
2019-05-01T11:53:47.484Z,13.80
2019-05-01T11:55:51.680Z,13.00
2019-05-01T11:56:51.931Z,13.50
2019-05-01T11:58:56.107Z,13.30
2019-05-01T11:59:56.357Z,11.90
2019-05-01T12:01:49.477Z,12.20
2019-05-01T12:02:49.724Z,13.20
2019-05-01T12:04:53.898Z,14.10
2019-05-01T12:05:54.146Z,13.80
2019-05-01T12:07:58.343Z,14.30
2019-05-01T12:08:58.591Z,13.50
2019-05-01T12:11:02.783Z,14.50
2019-05-01T12:12:03.032Z,14.20
2019-05-01T12:14:07.205Z,14.80
2019-05-01T12:15:07.454Z,15.90
2019-05-01T12:17:11.644Z,14.80
2019-05-01T12:18:11.891Z,15.90
2019-05-01T12:20:16.062Z,15.00
2019-05-01T12:21:16.310Z,14.00
2019-05-01T12:23:20.506Z,15.30
2019-05-01T12:24:20.750Z,13.50
2019-05-01T12:26:24.919Z,12.60
2019-05-01T12:27:25.167Z,12.40
2019-05-01T12:29:29.365Z,10.80
2019-05-01T12:30:29.612Z,10.90
2019-05-01T12:32:33.805Z,10.80
2019-05-01T12:33:34.052Z,10.80
2019-05-01T12:35:38.227Z,10.00
2019-05-01T12:36:38.475Z,10.80
2019-05-01T12:38:43.691Z,9.40
2019-05-01T12:39:43.942Z,8.60
2019-05-01T12:41:37.045Z,10.30
2019-05-01T12:42:37.294Z,10.00
2019-05-01T12:44:41.495Z,9.20
2019-05-01T12:45:41.743Z,8.60
2019-05-01T12:47:45.945Z,9.40
2019-05-01T12:48:46.197Z,11.70
2019-05-01T12:50:50.374Z,9.60
2019-05-01T12:51:50.629Z,9.70
2019-05-01T12:53:54.829Z,9.70
2019-05-01T12:54:55.096Z,9.50
2019-05-01T12:56:59.271Z,10.40
2019-05-01T12:57:59.522Z,9.30
2019-05-01T13:00:08.786Z,9.20
2019-05-01T13:01:03.980Z,10.00
2019-05-01T13:03:08.223Z,8.80
2019-05-01T13:04:08.471Z,9.30
2019-05-01T13:06:14.445Z,9.30
2019-05-01T13:07:12.923Z,10.10
2019-05-01T13:09:17.115Z,9.90
2019-05-01T13:10:17.370Z,10.50
2019-05-01T13:12:10.481Z,13.20
2019-05-01T13:13:11.250Z,14.00
2019-05-01T13:15:14.996Z,14.00
2019-05-01T13:16:15.350Z,13.60
2019-05-01T13:18:19.657Z,13.70
2019-05-01T13:19:19.868Z,13.70
2019-05-01T13:21:24.181Z,12.90
2019-05-01T13:22:24.427Z,13.50
2019-05-01T13:24:28.612Z,13.30
2019-05-01T13:25:28.862Z,13.30
2019-05-01T13:27:33.063Z,13.50
2019-05-01T13:28:33.311Z,13.90
2019-05-01T13:30:38.719Z,14.50
2019-05-01T13:31:38.736Z,13.70
2019-05-01T13:33:42.999Z,13.80
2019-05-01T13:34:43.244Z,13.70
2019-05-01T13:36:47.607Z,15.60
2019-05-01T13:37:47.928Z,16.40
2019-05-01T13:39:52.107Z,14.90
2019-05-01T13:40:52.353Z,15.50
2019-05-01T13:42:56.590Z,15.30
2019-05-01T13:43:56.840Z,15.20
2019-05-01T13:46:01.039Z,16.50
2019-05-01T13:47:01.395Z,17.50
2019-05-01T13:49:05.665Z,15.10
2019-05-01T13:50:05.997Z,15.40
2019-05-01T13:51:59.145Z,15.20
2019-05-01T13:52:59.475Z,16.60
2019-05-01T13:55:03.714Z,16.00
2019-05-01T13:56:03.940Z,15.70
2019-05-01T13:58:08.132Z,15.50
2019-05-01T13:59:08.429Z,16.80
2019-05-01T14:01:12.795Z,15.20
2019-05-01T14:02:13.037Z,16.10
2019-05-01T14:04:17.234Z,15.70
2019-05-01T14:05:17.463Z,14.70
2019-05-01T14:07:21.675Z,17.40
2019-05-01T14:08:21.921Z,16.90
2019-05-01T14:10:26.208Z,16.10
2019-05-01T14:11:26.427Z,15.10
2019-05-01T14:13:30.628Z,14.90
2019-05-01T14:14:30.877Z,15.80
2019-05-01T14:16:36.241Z,17.80
2019-05-01T14:17:36.487Z,15.20
2019-05-01T14:19:41.673Z,15.50
2019-05-01T14:20:41.975Z,15.10
2019-05-01T14:22:47.261Z,13.60
2019-05-01T14:23:47.641Z,13.50
2019-05-01T14:25:51.717Z,15.50
2019-05-01T14:26:52.002Z,15.80
2019-05-01T14:28:56.230Z,17.50
2019-05-01T14:29:56.454Z,16.80
2019-05-01T14:31:49.777Z,16.30
2019-05-01T14:32:51.746Z,15.80
2019-05-01T14:34:54.129Z,16.50
2019-05-01T14:35:54.380Z,16.80
2019-05-01T14:37:58.731Z,18.20
2019-05-01T14:38:58.969Z,17.70
2019-05-01T14:41:04.192Z,17.10
2019-05-01T14:42:04.510Z,18.20
2019-05-01T14:44:08.732Z,16.90
2019-05-01T14:45:08.976Z,16.60
2019-05-01T14:47:13.177Z,18.70
2019-05-01T14:48:13.562Z,19.60
2019-05-01T14:50:17.848Z,18.20
2019-05-01T14:51:21.430Z,17.70
2019-05-01T14:53:22.331Z,18.90
2019-05-01T14:54:22.688Z,17.50
2019-05-01T14:56:26.876Z,18.90
2019-05-01T14:57:27.932Z,18.50
2019-05-01T14:59:31.628Z,20.70
2019-05-01T15:00:31.834Z,19.50
2019-05-01T15:02:36.048Z,20.50
2019-05-01T15:03:36.401Z,19.60
2019-05-01T15:05:41.583Z,20.00
2019-05-01T15:06:41.830Z,19.40
2019-05-01T15:08:46.050Z,18.80
2019-05-01T15:09:46.269Z,21.00
2019-05-01T15:11:39.424Z,20.10
2019-05-01T15:12:39.795Z,18.90
2019-05-01T15:14:43.998Z,19.60
2019-05-01T15:15:44.245Z,20.30
2019-05-01T15:17:48.433Z,19.60
2019-05-01T15:18:48.682Z,19.40
2019-05-01T15:20:52.851Z,19.70
2019-05-01T15:21:53.098Z,20.20
2019-05-01T15:23:57.287Z,21.50
2019-05-01T15:24:57.536Z,20.10
2019-05-01T15:27:01.711Z,21.50
2019-05-01T15:28:01.958Z,22.80
2019-05-01T15:30:06.160Z,20.00
2019-05-01T15:31:06.407Z,20.90
2019-05-01T15:33:10.599Z,22.50
2019-05-01T15:34:10.846Z,20.50
2019-05-01T15:36:15.014Z,20.30
2019-05-01T15:37:15.262Z,21.60
2019-05-01T15:39:19.459Z,20.90
2019-05-01T15:40:19.701Z,20.60
2019-05-01T15:42:23.871Z,20.00
2019-05-01T15:43:24.118Z,20.70
2019-05-01T15:45:28.314Z,20.10
2019-05-01T15:46:28.555Z,19.50
2019-05-01T15:48:32.753Z,20.60
2019-05-01T15:49:33.001Z,20.90
2019-05-01T15:51:26.097Z,20.90
2019-05-01T15:52:26.343Z,20.90
2019-05-01T15:54:30.532Z,20.90
2019-05-01T15:55:30.778Z,20.20
2019-05-01T15:57:34.950Z,19.60
2019-05-01T15:58:35.195Z,20.50
2019-05-01T16:00:39.387Z,21.10
2019-05-01T16:01:39.641Z,20.50
2019-05-01T16:03:43.835Z,21.00
2019-05-01T16:04:44.083Z,19.40
2019-05-01T16:06:48.251Z,18.80
2019-05-01T16:07:48.504Z,19.70
2019-05-01T16:09:52.701Z,18.80
2019-05-01T16:10:52.948Z,17.60
2019-05-01T16:12:57.123Z,19.20
2019-05-01T16:13:57.372Z,18.60
2019-05-01T16:16:01.561Z,18.80
2019-05-01T16:17:01.809Z,19.70
2019-05-01T16:19:05.998Z,19.00
2019-05-01T16:20:06.246Z,19.30
2019-05-01T16:21:59.346Z,18.80
2019-05-01T16:22:59.595Z,19.30
2019-05-01T16:25:04.286Z,19.00
2019-05-01T16:26:04.533Z,18.30
2019-05-01T16:28:08.705Z,18.70
2019-05-01T16:29:08.949Z,18.90
2019-05-01T16:31:13.649Z,19.00
2019-05-01T16:32:13.897Z,18.80
2019-05-01T16:34:18.594Z,21.30
2019-05-01T16:35:18.839Z,22.40
2019-05-01T16:37:23.520Z,19.60
2019-05-01T16:38:23.767Z,19.60
2019-05-01T16:40:28.453Z,20.20
2019-05-01T16:41:28.702Z,21.30
2019-05-01T16:43:33.364Z,21.20
2019-05-01T16:44:33.613Z,19.80
2019-05-01T16:46:38.317Z,21.50
2019-05-01T16:47:38.563Z,20.20
2019-05-01T16:49:43.262Z,21.20
2019-05-01T16:50:43.506Z,18.90
2019-05-01T16:52:49.172Z,21.00
2019-05-01T16:53:49.416Z,19.80
2019-05-01T16:55:54.168Z,20.30
2019-05-01T16:56:54.409Z,22.40
2019-05-01T16:58:59.165Z,21.20
2019-05-01T16:59:59.413Z,23.70
2019-05-01T17:01:53.009Z,21.40
2019-05-01T17:02:53.254Z,21.30
2019-05-01T17:04:57.938Z,20.30
2019-05-01T17:05:58.184Z,22.80
2019-05-01T17:08:02.377Z,21.50
2019-05-01T17:09:02.621Z,20.70
2019-05-01T17:11:06.877Z,19.90
2019-05-01T17:12:07.120Z,22.50
2019-05-01T17:14:11.319Z,20.30
2019-05-01T17:15:11.565Z,20.30
2019-05-01T17:17:15.733Z,20.00
2019-05-01T17:18:15.989Z,20.00
2019-05-01T17:20:20.195Z,21.70
2019-05-01T17:21:20.431Z,21.80
2019-05-01T17:23:24.604Z,23.80
2019-05-01T17:24:24.851Z,22.10
2019-05-01T17:26:29.042Z,22.80
2019-05-01T17:27:29.291Z,22.40
2019-05-01T17:29:33.472Z,21.80
2019-05-01T17:30:33.713Z,23.00
2019-05-01T17:32:39.881Z,24.30
2019-05-01T17:33:38.128Z,23.80
2019-05-01T17:35:43.259Z,23.90
2019-05-01T17:36:42.564Z,23.40
2019-05-01T17:38:49.759Z,24.00
2019-05-01T17:39:46.973Z,24.70
2019-05-01T17:41:40.290Z,24.00
2019-05-01T17:42:40.300Z,24.40
2019-05-01T17:44:44.507Z,24.90
2019-05-01T17:45:44.759Z,26.30
2019-05-01T17:47:52.752Z,24.80
2019-05-01T17:48:49.662Z,26.00
2019-05-01T17:50:55.064Z,29.60
2019-05-01T17:51:54.098Z,26.90
2019-05-01T17:53:58.267Z,26.00
2019-05-01T17:55:01.265Z,26.50
2019-05-01T17:57:02.709Z,25.80
2019-05-01T17:58:02.948Z,25.70
2019-05-01T18:00:07.139Z,26.60
2019-05-01T18:01:07.384Z,25.40
2019-05-01T18:03:11.558Z,26.40
2019-05-01T18:04:11.815Z,27.10
2019-05-01T18:06:15.989Z,27.00
2019-05-01T18:07:16.234Z,26.80
2019-05-01T18:09:20.398Z,25.30
2019-05-01T18:10:20.641Z,26.70
2019-05-01T18:12:28.546Z,27.80
2019-05-01T18:13:25.085Z,27.40
2019-05-01T18:15:29.271Z,28.80
2019-05-01T18:16:29.518Z,29.10
2019-05-01T18:18:33.681Z,23.90
2019-05-01T18:19:33.926Z,24.10
2019-05-01T18:21:27.045Z,24.10
2019-05-01T18:22:27.294Z,24.00
2019-05-01T18:24:31.457Z,24.00
2019-05-01T18:25:33.054Z,22.80
2019-05-01T18:27:35.895Z,24.10
2019-05-01T18:28:36.138Z,22.20
2019-05-01T18:30:40.326Z,22.10
2019-05-01T18:31:40.569Z,22.50
2019-05-01T18:33:44.747Z,21.90
2019-05-01T18:34:44.989Z,23.80
2019-05-01T18:36:50.187Z,21.20
2019-05-01T18:37:50.432Z,22.30
2019-05-01T18:39:54.599Z,21.00
2019-05-01T18:40:54.843Z,22.40
2019-05-01T18:42:59.033Z,21.40
2019-05-01T18:43:59.289Z,21.70
2019-05-01T18:46:03.569Z,23.10
2019-05-01T18:47:03.795Z,22.10
2019-05-01T18:49:08.472Z,22.40
2019-05-01T18:50:08.733Z,21.90
2019-05-01T18:52:02.933Z,23.60
2019-05-01T18:53:06.862Z,23.60
2019-05-01T18:55:07.367Z,23.40
2019-05-01T18:56:07.609Z,23.20
2019-05-01T18:58:11.811Z,24.50
2019-05-01T18:59:12.077Z,24.50
2019-05-01T19:01:16.333Z,23.80
2019-05-01T19:02:20.472Z,23.80
2019-05-01T19:04:23.475Z,26.50
2019-05-01T19:05:22.018Z,26.60
2019-05-01T19:07:27.279Z,26.80
2019-05-01T19:08:27.495Z,27.70
2019-05-01T19:10:31.674Z,28.40
2019-05-01T19:11:31.965Z,29.00
2019-05-01T19:13:36.163Z,32.30
2019-05-01T19:14:36.416Z,31.90
2019-05-01T19:16:45.391Z,32.10
2019-05-01T19:17:40.792Z,32.30
2019-05-01T19:19:45.008Z,33.40
2019-05-01T19:20:58.370Z,33.10
2019-05-01T19:22:49.496Z,32.00
2019-05-01T19:23:49.738Z,32.10
2019-05-01T19:25:56.513Z,31.30
2019-05-01T19:26:54.220Z,31.00
2019-05-01T19:28:58.928Z,32.80
2019-05-01T19:29:59.335Z,32.80
2019-05-01T19:31:53.490Z,33.40
2019-05-01T19:32:53.853Z,33.60
2019-05-01T19:34:58.088Z,35.00
2019-05-01T19:36:02.514Z,34.10
2019-05-01T19:38:02.676Z,35.60
2019-05-01T19:39:06.846Z,38.20
2019-05-01T19:41:08.861Z,36.90
2019-05-01T19:42:07.354Z,37.00
2019-05-01T19:44:13.817Z,34.80
2019-05-01T19:45:12.368Z,36.60